createdAt,value
2018-07-14T00:01:47.387Z,7.10
2018-07-14T00:04:16.750Z,7.90
2018-07-14T00:06:46.087Z,9.43
2018-07-14T00:09:15.595Z,8.00
2018-07-14T00:11:44.945Z,8.17
2018-07-14T00:14:14.313Z,7.70
2018-07-14T00:16:43.727Z,8.57
2018-07-14T00:19:13.767Z,8.60
2018-07-14T00:21:43.097Z,8.27
2018-07-14T00:24:12.445Z,7.50
2018-07-14T00:26:41.943Z,6.83
2018-07-14T00:29:11.270Z,6.90
2018-07-14T00:31:40.642Z,6.63
2018-07-14T00:34:10.049Z,6.67
2018-07-14T00:36:39.363Z,6.73
2018-07-14T00:39:08.729Z,7.17
2018-07-14T00:41:38.100Z,6.67
2018-07-14T00:44:07.368Z,5.90
2018-07-14T00:46:36.691Z,6.60
2018-07-14T00:49:06.259Z,6.13
2018-07-14T00:51:35.630Z,6.57
2018-07-14T00:54:05.025Z,6.23
2018-07-14T00:56:34.394Z,6.73
2018-07-14T00:59:03.706Z,7.50
2018-07-14T01:01:32.979Z,6.77
2018-07-14T01:04:02.386Z,7.40
2018-07-14T01:06:31.678Z,8.30
2018-07-14T01:09:00.974Z,7.40
2018-07-14T01:11:30.290Z,7.93
2018-07-14T01:13:59.577Z,6.67
2018-07-14T01:16:28.870Z,7.03
2018-07-14T01:18:58.208Z,8.17
2018-07-14T01:21:27.527Z,6.60
2018-07-14T01:23:56.573Z,6.23
2018-07-14T01:26:26.207Z,6.30
2018-07-14T01:28:55.850Z,6.80
2018-07-14T01:31:25.189Z,6.60
2018-07-14T01:33:54.519Z,6.73
2018-07-14T01:36:23.906Z,6.70
2018-07-14T01:38:53.343Z,6.97
2018-07-14T01:41:22.741Z,6.10
2018-07-14T01:43:51.806Z,5.20
2018-07-14T01:46:21.125Z,6.00
2018-07-14T01:48:50.820Z,6.10
2018-07-14T01:51:20.153Z,6.43
2018-07-14T01:53:49.507Z,6.97
2018-07-14T01:56:18.856Z,5.90
2018-07-14T01:58:48.214Z,6.00
2018-07-14T02:01:17.556Z,6.40
2018-07-14T02:03:46.962Z,6.00
2018-07-14T02:06:16.330Z,6.37
2018-07-14T02:08:45.667Z,6.17
2018-07-14T02:11:15.676Z,6.07
2018-07-14T02:13:45.014Z,6.23
2018-07-14T02:16:14.391Z,6.73
2018-07-14T02:18:43.716Z,5.93
2018-07-14T02:21:13.028Z,6.80
2018-07-14T02:23:42.341Z,6.57
2018-07-14T02:26:11.690Z,6.37
2018-07-14T02:28:40.991Z,6.93
2018-07-14T02:31:10.331Z,6.63
2018-07-14T02:33:40.195Z,6.13
2018-07-14T02:36:09.535Z,6.43
2018-07-14T02:38:38.848Z,5.80
2018-07-14T02:41:08.271Z,6.13
2018-07-14T02:43:37.628Z,5.83
2018-07-14T02:46:07.042Z,6.40
2018-07-14T02:48:36.407Z,5.60
2018-07-14T02:51:05.758Z,6.37
2018-07-14T02:53:35.149Z,6.10
2018-07-14T02:56:04.622Z,5.80
2018-07-14T02:58:33.952Z,6.10
2018-07-14T03:01:03.323Z,6.13
2018-07-14T03:03:32.748Z,6.50
2018-07-14T03:06:01.843Z,6.50
2018-07-14T03:08:31.318Z,6.00
2018-07-14T03:11:00.678Z,6.53
2018-07-14T03:13:30.007Z,6.27
2018-07-14T03:15:59.382Z,6.50
2018-07-14T03:18:29.265Z,6.80
2018-07-14T03:20:58.620Z,7.10
2018-07-14T03:23:27.974Z,6.17
2018-07-14T03:25:57.330Z,6.57
2018-07-14T03:28:26.597Z,6.07
2018-07-14T03:30:55.932Z,6.47
2018-07-14T03:33:25.273Z,7.30
2018-07-14T03:35:54.605Z,7.00
2018-07-14T03:38:24.084Z,6.50
2018-07-14T03:40:53.787Z,7.40
2018-07-14T03:43:23.149Z,7.13
2018-07-14T03:45:52.516Z,6.93
2018-07-14T03:48:21.912Z,7.50
2018-07-14T03:50:51.448Z,7.60
2018-07-14T03:53:20.726Z,7.03
2018-07-14T03:55:50.111Z,6.70
2018-07-14T03:58:19.402Z,7.63
2018-07-14T04:00:48.706Z,7.30
2018-07-14T04:03:21.651Z,6.83
2018-07-14T04:05:53.220Z,7.73
2018-07-14T04:08:25.299Z,6.60
2018-07-14T04:10:54.604Z,6.87
2018-07-14T04:13:24.321Z,6.20
2018-07-14T04:15:53.666Z,6.60
2018-07-14T04:18:22.945Z,6.37
2018-07-14T04:20:52.294Z,6.93
2018-07-14T04:23:22.135Z,7.10
2018-07-14T04:25:51.462Z,7.10
2018-07-14T04:28:20.759Z,7.50
2018-07-14T04:30:50.041Z,7.03
2018-07-14T04:33:19.351Z,6.97
2018-07-14T04:35:49.179Z,6.23
2018-07-14T04:38:18.314Z,6.67
2018-07-14T04:40:47.658Z,6.83
2018-07-14T04:43:16.982Z,6.00
2018-07-14T04:45:46.696Z,6.77
2018-07-14T04:48:16.021Z,7.03
2018-07-14T04:50:45.467Z,6.20
2018-07-14T04:53:14.927Z,5.77
2018-07-14T04:55:44.159Z,5.77
2018-07-14T04:58:13.493Z,6.33
2018-07-14T05:00:42.810Z,6.33
2018-07-14T05:03:11.882Z,6.77
2018-07-14T05:05:41.195Z,6.17
2018-07-14T05:08:11.187Z,5.97
2018-07-14T05:10:40.523Z,5.90
2018-07-14T05:13:09.876Z,6.13
2018-07-14T05:15:39.224Z,6.13
2018-07-14T05:18:08.552Z,6.93
2018-07-14T05:20:37.848Z,6.43
2018-07-14T05:23:07.233Z,6.07
2018-07-14T05:25:36.600Z,5.87
2018-07-14T05:28:06.032Z,6.07
2018-07-14T05:30:35.477Z,6.40
2018-07-14T05:33:04.876Z,5.47
2018-07-14T05:35:34.820Z,5.70
2018-07-14T05:38:04.466Z,5.57
2018-07-14T05:40:33.848Z,6.20
2018-07-14T05:43:03.115Z,6.07
2018-07-14T05:45:32.535Z,5.13
2018-07-14T05:48:01.854Z,6.20
2018-07-14T05:50:31.119Z,5.80
2018-07-14T05:53:00.835Z,5.50
2018-07-14T05:55:30.184Z,5.57
2018-07-14T05:57:59.705Z,5.80
2018-07-14T06:00:29.096Z,6.37
2018-07-14T06:02:58.428Z,5.73
2018-07-14T06:05:27.735Z,5.87
2018-07-14T06:07:57.079Z,6.43
2018-07-14T06:10:26.463Z,6.30
2018-07-14T06:12:55.758Z,6.00
2018-07-14T06:15:25.436Z,6.63
2018-07-14T06:17:54.750Z,6.27
2018-07-14T06:20:24.037Z,5.50
2018-07-14T06:22:53.382Z,6.60
2018-07-14T06:25:22.712Z,5.63
2018-07-14T06:27:52.043Z,5.50
2018-07-14T06:30:21.858Z,5.63
2018-07-14T06:32:51.265Z,5.47
2018-07-14T06:35:20.589Z,6.10
2018-07-14T06:37:49.955Z,5.63
2018-07-14T06:40:19.263Z,5.50
2018-07-14T06:42:48.554Z,5.37
2018-07-14T06:45:17.874Z,5.60
2018-07-14T06:47:47.198Z,4.93
2018-07-14T06:50:16.472Z,5.30
2018-07-14T06:52:45.941Z,5.33
2018-07-14T06:55:15.312Z,5.20
2018-07-14T06:57:44.738Z,5.20
2018-07-14T07:00:24.503Z,5.10
2018-07-14T07:02:53.849Z,5.70
2018-07-14T07:05:23.242Z,5.10
2018-07-14T07:07:52.564Z,5.10
2018-07-14T07:10:21.916Z,4.73
2018-07-14T07:12:51.209Z,5.20
2018-07-14T07:15:20.605Z,5.97
2018-07-14T07:17:49.965Z,5.13
2018-07-14T07:20:19.711Z,3.87
2018-07-14T07:22:49.031Z,3.83
2018-07-14T07:25:18.367Z,2.87
2018-07-14T07:27:47.791Z,4.07
2018-07-14T07:30:17.247Z,3.37
2018-07-14T07:32:46.743Z,3.23
2018-07-14T07:35:15.941Z,3.30
2018-07-14T07:37:45.426Z,3.10
2018-07-14T07:40:14.804Z,3.17
2018-07-14T07:42:44.352Z,3.00
2018-07-14T07:45:13.693Z,2.73
2018-07-14T07:47:43.052Z,2.60
2018-07-14T07:50:12.460Z,2.43
2018-07-14T07:52:41.608Z,4.37
2018-07-14T07:55:10.931Z,3.83
2018-07-14T07:57:40.315Z,2.80
2018-07-14T08:00:09.859Z,2.83
2018-07-14T08:02:39.404Z,3.33
2018-07-14T08:05:09.020Z,2.90
2018-07-14T08:07:38.410Z,3.00
2018-07-14T08:10:07.986Z,2.67
2018-07-14T08:12:37.400Z,2.80
2018-07-14T08:15:06.786Z,2.67
2018-07-14T08:17:36.187Z,3.33
2018-07-14T08:20:05.907Z,2.70
2018-07-14T08:22:35.240Z,3.30
2018-07-14T08:25:07.443Z,2.73
2018-07-14T08:27:36.710Z,2.90
2018-07-14T08:30:06.382Z,3.10
2018-07-14T08:32:35.723Z,3.57
2018-07-14T08:35:05.190Z,2.70
2018-07-14T08:37:34.591Z,3.37
2018-07-14T08:40:04.206Z,3.40
2018-07-14T08:42:33.593Z,3.37
2018-07-14T08:45:02.904Z,2.43
2018-07-14T08:47:32.542Z,3.40
2018-07-14T08:50:01.908Z,3.10
2018-07-14T08:52:31.307Z,3.10
2018-07-14T08:55:00.772Z,3.60
2018-07-14T08:57:30.661Z,3.13
2018-07-14T09:00:00.037Z,2.73
2018-07-14T09:02:29.684Z,3.90
2018-07-14T09:04:59.125Z,6.80
2018-07-14T09:07:28.549Z,3.87
2018-07-14T09:09:58.119Z,3.50
2018-07-14T09:12:27.957Z,3.43
2018-07-14T09:14:57.394Z,3.40
2018-07-14T09:17:26.782Z,3.30
2018-07-14T09:19:56.198Z,3.83
2018-07-14T09:22:25.583Z,3.40
2018-07-14T09:24:54.919Z,3.47
2018-07-14T09:27:24.269Z,3.10
2018-07-14T09:29:53.586Z,3.40
2018-07-14T09:32:23.319Z,2.63
2018-07-14T09:34:52.675Z,3.40
2018-07-14T09:37:21.980Z,3.20
2018-07-14T09:39:51.382Z,3.20
2018-07-14T09:42:20.743Z,3.27
2018-07-14T09:44:50.091Z,3.20
2018-07-14T09:47:19.434Z,2.93
2018-07-14T09:49:48.783Z,3.40
2018-07-14T09:52:18.143Z,3.13
2018-07-14T09:54:48.072Z,3.20
2018-07-14T09:57:17.376Z,2.73
2018-07-14T09:59:46.731Z,2.97
2018-07-14T10:02:16.183Z,7.30
2018-07-14T10:04:45.521Z,4.10
2018-07-14T10:07:14.835Z,3.13
2018-07-14T10:09:44.204Z,3.47
2018-07-14T10:12:13.633Z,2.80
2018-07-14T10:14:42.997Z,7.00
2018-07-14T10:17:13.062Z,3.80
2018-07-14T10:19:42.413Z,4.20
2018-07-14T10:22:11.822Z,3.17
2018-07-14T10:24:41.138Z,3.87
2018-07-14T10:27:10.581Z,4.67
2018-07-14T10:29:40.123Z,3.40
2018-07-14T10:32:10.915Z,3.13
2018-07-14T10:34:40.268Z,3.43
2018-07-14T10:37:09.804Z,2.80
2018-07-14T10:39:39.417Z,2.67
2018-07-14T10:42:08.828Z,2.93
2018-07-14T10:44:38.241Z,3.70
2018-07-14T10:47:07.707Z,3.00
2018-07-14T10:49:37.128Z,2.43
2018-07-14T10:52:06.779Z,2.80
2018-07-14T10:54:36.246Z,2.13
2018-07-14T10:57:05.798Z,2.27
2018-07-14T10:59:35.174Z,2.23
2018-07-14T11:02:04.759Z,2.87
2018-07-14T11:04:34.206Z,1.70
2018-07-14T11:07:06.502Z,2.00
2018-07-14T11:09:36.007Z,2.30
2018-07-14T11:12:05.385Z,2.20
2018-07-14T11:14:34.845Z,2.40
2018-07-14T11:17:04.579Z,1.90
2018-07-14T11:19:33.853Z,3.40
2018-07-14T11:22:04.399Z,2.40
2018-07-14T11:24:33.749Z,1.80
2018-07-14T11:27:03.225Z,1.97
2018-07-14T11:29:32.660Z,1.90
2018-07-14T11:32:02.083Z,1.63
2018-07-14T11:34:31.469Z,1.37
2018-07-14T11:37:00.907Z,2.40
2018-07-14T11:39:30.485Z,2.33
2018-07-14T11:41:59.904Z,2.10
2018-07-14T11:44:29.549Z,1.80
2018-07-14T11:47:00.155Z,1.53
2018-07-14T11:49:30.352Z,1.60
2018-07-14T11:52:00.180Z,1.73
2018-07-14T11:54:29.902Z,1.90
2018-07-14T11:56:59.478Z,1.50
2018-07-14T11:59:29.138Z,1.53
2018-07-14T12:01:58.687Z,1.50
2018-07-14T12:04:28.564Z,1.70
2018-07-14T12:06:58.078Z,1.70
2018-07-14T12:09:27.450Z,1.93
2018-07-14T12:11:56.981Z,1.60
2018-07-14T12:14:26.420Z,1.90
2018-07-14T12:16:55.913Z,1.70
2018-07-14T12:19:25.307Z,1.80
2018-07-14T12:21:54.784Z,1.80
2018-07-14T12:24:24.159Z,1.77
2018-07-14T12:26:53.827Z,2.27
2018-07-14T12:29:23.159Z,2.03
2018-07-14T12:31:52.505Z,1.77
2018-07-14T12:34:22.199Z,1.87
2018-07-14T12:36:52.249Z,1.40
2018-07-14T12:39:21.731Z,2.97
2018-07-14T12:41:51.243Z,2.00
2018-07-14T12:44:20.569Z,2.40
2018-07-14T12:46:50.109Z,1.40
2018-07-14T12:49:19.677Z,2.10
2018-07-14T12:51:49.195Z,2.03
2018-07-14T12:54:18.599Z,2.10
2018-07-14T12:56:47.976Z,2.07
2018-07-14T12:59:17.632Z,1.60
2018-07-14T13:01:47.052Z,1.97
2018-07-14T13:04:16.455Z,1.87
2018-07-14T13:06:45.924Z,1.63
2018-07-14T13:09:15.518Z,2.00
2018-07-14T13:11:45.232Z,2.10
2018-07-14T13:14:14.730Z,2.00
2018-07-14T13:16:44.202Z,1.90
2018-07-14T13:19:13.610Z,1.53
2018-07-14T13:21:43.056Z,1.50
2018-07-14T13:24:12.464Z,1.67
2018-07-14T13:26:41.876Z,1.90
2018-07-14T13:29:11.300Z,1.63
2018-07-14T13:31:40.803Z,1.80
2018-07-14T13:34:10.538Z,1.73
2018-07-14T13:36:39.963Z,5.23
2018-07-14T13:39:09.279Z,2.30
2018-07-14T13:41:38.660Z,5.97
2018-07-14T13:44:08.053Z,1.47
2018-07-14T13:46:37.398Z,1.57
2018-07-14T13:49:06.806Z,1.77
2018-07-14T13:51:36.207Z,1.50
2018-07-14T13:54:05.554Z,2.00
2018-07-14T13:56:35.422Z,1.60
2018-07-14T13:59:04.733Z,2.20
2018-07-14T14:01:34.139Z,2.00
2018-07-14T14:04:03.515Z,2.23
2018-07-14T14:06:32.925Z,1.50
2018-07-14T14:09:02.403Z,1.50
2018-07-14T14:11:31.804Z,1.90
2018-07-14T14:14:01.233Z,1.67
2018-07-14T14:16:30.470Z,2.07
2018-07-14T14:19:00.165Z,1.80
2018-07-14T14:21:29.615Z,1.67
2018-07-14T14:23:59.010Z,1.80
2018-07-14T14:26:28.884Z,2.00
2018-07-14T14:28:58.154Z,1.90
2018-07-14T14:31:27.473Z,1.47
2018-07-14T14:33:56.847Z,2.33
2018-07-14T14:36:26.155Z,1.80
2018-07-14T14:38:55.489Z,2.00
2018-07-14T14:41:24.911Z,1.80
2018-07-14T14:43:54.161Z,2.20
2018-07-14T14:46:23.487Z,1.97
2018-07-14T14:48:52.854Z,2.00
2018-07-14T14:51:22.199Z,2.43
2018-07-14T14:53:51.514Z,2.53
2018-07-14T14:56:20.796Z,2.37
2018-07-14T14:58:50.630Z,2.17
2018-07-14T15:01:19.927Z,2.33
2018-07-14T15:03:49.842Z,2.07
2018-07-14T15:06:19.193Z,1.70
2018-07-14T15:08:48.431Z,1.90
2018-07-14T15:11:17.948Z,2.10
2018-07-14T15:13:47.291Z,2.00
2018-07-14T15:16:16.590Z,1.70
2018-07-14T15:18:45.930Z,1.67
2018-07-14T15:21:15.222Z,1.93
2018-07-14T15:23:44.551Z,2.03
2018-07-14T15:26:13.999Z,2.10
2018-07-14T15:28:43.367Z,1.67
2018-07-14T15:31:12.708Z,1.57
2018-07-14T15:33:42.141Z,1.93
2018-07-14T15:36:11.469Z,1.73
2018-07-14T15:38:40.774Z,1.80
2018-07-14T15:41:09.976Z,1.50
2018-07-14T15:43:39.301Z,1.93
2018-07-14T15:46:08.622Z,2.00
2018-07-14T15:48:38.352Z,1.90
2018-07-14T15:51:07.685Z,1.70
2018-07-14T15:53:36.953Z,1.70
2018-07-14T15:56:06.955Z,1.50
2018-07-14T15:58:36.270Z,1.70
2018-07-14T16:01:05.638Z,1.73
2018-07-14T16:03:34.990Z,1.70
2018-07-14T16:06:04.379Z,1.97
2018-07-14T16:08:33.707Z,1.90
2018-07-14T16:11:03.627Z,1.63
2018-07-14T16:13:32.907Z,1.90
2018-07-14T16:16:02.245Z,1.30
2018-07-14T16:18:31.606Z,1.90
2018-07-14T16:21:00.882Z,2.30
2018-07-14T16:23:30.194Z,2.00
2018-07-14T16:25:59.547Z,2.50
2018-07-14T16:28:28.906Z,1.70
2018-07-14T16:30:58.209Z,2.00
2018-07-14T16:33:27.808Z,1.60
2018-07-14T16:35:57.137Z,1.53
2018-07-14T16:38:26.428Z,2.80
2018-07-14T16:40:55.773Z,2.13
2018-07-14T16:43:25.093Z,1.97
2018-07-14T16:45:54.500Z,2.70
2018-07-14T16:48:23.969Z,2.00
2018-07-14T16:50:53.526Z,1.60
2018-07-14T16:53:22.842Z,1.93
2018-07-14T16:55:52.480Z,1.43
2018-07-14T16:58:21.749Z,1.40
2018-07-14T17:00:51.029Z,1.70
2018-07-14T17:03:20.589Z,2.30
2018-07-14T17:05:49.958Z,2.20
2018-07-14T17:08:20.111Z,2.40
2018-07-14T17:10:49.442Z,1.90
2018-07-14T17:13:18.915Z,2.50
2018-07-14T17:15:48.352Z,1.80
2018-07-14T17:18:17.755Z,2.00
2018-07-14T17:20:47.325Z,1.60
2018-07-14T17:23:16.606Z,1.80
2018-07-14T17:25:45.935Z,1.50
2018-07-14T17:28:15.256Z,1.90
2018-07-14T17:30:44.666Z,2.40
2018-07-14T17:33:13.978Z,3.27
2018-07-14T17:35:47.680Z,2.80
2018-07-14T17:38:17.102Z,3.30
2018-07-14T17:40:46.510Z,3.23
2018-07-14T17:43:15.912Z,2.67
2018-07-14T17:45:45.342Z,2.83
2018-07-14T17:48:14.727Z,2.37
2018-07-14T17:50:44.253Z,2.00
2018-07-14T17:53:16.486Z,2.10
2018-07-14T17:55:45.887Z,1.90
2018-07-14T17:58:15.362Z,2.33
2018-07-14T18:00:44.610Z,2.17
2018-07-14T18:03:13.961Z,2.60
2018-07-14T18:05:43.407Z,2.03
2018-07-14T18:08:12.887Z,2.23
2018-07-14T18:10:42.261Z,2.57
2018-07-14T18:13:11.782Z,3.03
2018-07-14T18:15:41.175Z,3.50
2018-07-14T18:18:10.533Z,3.40
2018-07-14T18:20:40.608Z,2.80
2018-07-14T18:23:10.062Z,2.30
2018-07-14T18:25:39.547Z,2.90
2018-07-14T18:28:08.902Z,2.87
2018-07-14T18:30:38.263Z,2.67
2018-07-14T18:33:07.646Z,2.60
2018-07-14T18:35:37.245Z,2.43
2018-07-14T18:38:06.695Z,2.40
2018-07-14T18:40:36.070Z,2.27
2018-07-14T18:43:05.736Z,2.73
2018-07-14T18:45:35.130Z,2.93
2018-07-14T18:48:04.512Z,2.90
2018-07-14T18:50:33.834Z,2.60
2018-07-14T18:53:03.133Z,2.60
2018-07-14T18:55:32.512Z,2.13
2018-07-14T18:58:01.855Z,2.70
2018-07-14T19:00:31.168Z,2.90
2018-07-14T19:03:00.494Z,2.70
2018-07-14T19:05:30.256Z,2.80
2018-07-14T19:07:59.597Z,8.63
2018-07-14T19:10:28.959Z,30.27
2018-07-14T19:12:58.329Z,3.77
2018-07-14T19:15:27.855Z,3.47
2018-07-14T19:17:57.236Z,4.07
2018-07-14T19:20:26.551Z,3.27
2018-07-14T19:22:55.853Z,3.20
2018-07-14T19:25:25.152Z,2.70
2018-07-14T19:27:54.670Z,3.27
2018-07-14T19:30:24.022Z,3.13
2018-07-14T19:32:53.358Z,2.90
2018-07-14T19:35:22.722Z,2.63
2018-07-14T19:37:52.317Z,2.33
2018-07-14T19:40:21.605Z,2.47
2018-07-14T19:42:51.047Z,2.30
2018-07-14T19:45:20.333Z,2.17
2018-07-14T19:47:49.786Z,2.20
2018-07-14T19:50:25.445Z,2.70
2018-07-14T19:52:54.760Z,2.30
2018-07-14T19:55:24.098Z,2.83
2018-07-14T19:57:53.438Z,1.90
2018-07-14T20:00:22.873Z,2.03
2018-07-14T20:02:52.194Z,2.30
2018-07-14T20:05:21.514Z,2.10
2018-07-14T20:07:50.894Z,2.80
2018-07-14T20:10:19.947Z,2.80
2018-07-14T20:12:49.819Z,2.80
2018-07-14T20:15:19.162Z,2.40
2018-07-14T20:17:48.538Z,2.70
2018-07-14T20:20:17.865Z,3.80
2018-07-14T20:22:47.198Z,2.97
2018-07-14T20:25:16.723Z,2.67
2018-07-14T20:27:46.052Z,2.73
2018-07-14T20:30:15.360Z,2.67
2018-07-14T20:32:44.714Z,2.40
2018-07-14T20:35:14.262Z,2.70
2018-07-14T20:37:43.604Z,2.67
2018-07-14T20:40:12.972Z,2.47
2018-07-14T20:42:42.335Z,2.20
2018-07-14T20:45:11.678Z,2.60
2018-07-14T20:47:40.970Z,2.40
2018-07-14T20:50:10.351Z,2.10
2018-07-14T20:52:39.876Z,2.10
2018-07-14T20:55:09.210Z,2.27
2018-07-14T20:57:38.605Z,2.70
2018-07-14T21:00:08.013Z,2.33
2018-07-14T21:02:37.413Z,2.77
2018-07-14T21:05:06.813Z,2.87
2018-07-14T21:07:36.151Z,2.40
2018-07-14T21:10:05.527Z,2.67
2018-07-14T21:12:35.000Z,2.97
2018-07-14T21:15:04.236Z,2.20
2018-07-14T21:17:33.532Z,2.67
2018-07-14T21:20:03.430Z,3.20
2018-07-14T21:22:32.819Z,2.60
2018-07-14T21:25:02.136Z,2.33
2018-07-14T21:27:31.519Z,2.97
2018-07-14T21:30:00.899Z,2.33
2018-07-14T21:32:30.035Z,2.40
2018-07-14T21:34:59.437Z,1.97
2018-07-14T21:37:28.755Z,2.53
2018-07-14T21:39:58.155Z,2.17
2018-07-14T21:42:27.752Z,2.13
2018-07-14T21:44:57.149Z,2.10
2018-07-14T21:47:26.581Z,2.10
2018-07-14T21:49:55.961Z,2.20
2018-07-14T21:52:25.318Z,2.10
2018-07-14T21:54:54.811Z,2.67
2018-07-14T21:57:24.391Z,1.80
2018-07-14T21:59:54.050Z,2.60
2018-07-14T22:02:23.418Z,2.47
2018-07-14T22:04:52.882Z,2.53
2018-07-14T22:07:22.263Z,2.57
2018-07-14T22:09:51.315Z,2.90
2018-07-14T22:12:20.749Z,2.10
2018-07-14T22:14:50.116Z,2.70
2018-07-14T22:17:19.382Z,2.63
2018-07-14T22:19:50.943Z,2.40
2018-07-14T22:22:20.318Z,2.57
2018-07-14T22:24:49.602Z,2.50
2018-07-14T22:27:19.327Z,2.50
2018-07-14T22:29:48.695Z,2.70
2018-07-14T22:32:18.044Z,2.97
2018-07-14T22:34:47.487Z,2.80
2018-07-14T22:37:16.818Z,2.90
2018-07-14T22:39:46.158Z,2.87
2018-07-14T22:42:15.518Z,2.60
2018-07-14T22:44:44.873Z,2.80
2018-07-14T22:47:15.246Z,3.20
2018-07-14T22:49:44.887Z,3.07
2018-07-14T22:52:14.188Z,3.10
2018-07-14T22:54:43.560Z,2.97
2018-07-14T22:57:12.935Z,3.07
2018-07-14T22:59:42.249Z,3.03
2018-07-14T23:02:11.531Z,2.87
2018-07-14T23:04:41.017Z,4.47
2018-07-14T23:07:10.325Z,2.97
2018-07-14T23:09:39.700Z,3.30
2018-07-14T23:12:09.371Z,3.23
2018-07-14T23:14:38.994Z,3.30
2018-07-14T23:17:08.291Z,3.57
2018-07-14T23:19:37.658Z,2.93
2018-07-14T23:22:07.116Z,3.50
2018-07-14T23:24:36.460Z,3.90
2018-07-14T23:27:05.759Z,3.30
2018-07-14T23:29:35.137Z,4.07
2018-07-14T23:32:04.504Z,3.93
2018-07-14T23:34:34.030Z,3.50
2018-07-14T23:37:03.371Z,3.90
2018-07-14T23:39:32.790Z,4.03
2018-07-14T23:42:03.216Z,4.20
2018-07-14T23:44:32.499Z,3.90
2018-07-14T23:47:01.876Z,4.20
2018-07-14T23:49:31.195Z,3.87
2018-07-14T23:52:00.463Z,4.20
2018-07-14T23:54:29.767Z,4.13
2018-07-14T23:56:59.261Z,3.60
2018-07-14T23:59:28.592Z,4.00
